Home > Products > Valid Products > MTR

000
SAUS45 KREV 012057
MTRDRA
METAR KDRA 012052Z AUTO 19004KT 10SM CLR 17/M04 A3015 RMK AO2 SLP187
T01671044 58017





000
SAUS45 KREV 011957
MTRDRA
METAR KDRA 011952Z AUTO 12006KT 10SM CLR 16/M03 A3018 RMK AO2 SLP197
T01561028





000
SAUS45 KREV 011857
MTRDRA
METAR KDRA 011852Z AUTO 00000KT 10SM CLR 15/M04 A3020 RMK AO2 SLP205
T01501044





000
SAUS45 KREV 011757
MTRDRA
METAR KDRA 011752Z AUTO 07003KT 10SM CLR 14/M04 A3020 RMK AO2 SLP208
T01391044 10139 20039 51010





000
SAUS45 KREV 011657
MTRDRA
METAR KDRA 011652Z AUTO 08003KT 10SM CLR 10/00 A3020 RMK AO2 SLP209
T01000000





000
SAUS45 KREV 011657
MTRDRA
METAR KDRA 011652Z AUTO 08003KT 10SM CLR 10/00 A3020 RMK AO2 SLP209
T01000000





000
SAUS45 KREV 011557
MTRDRA
METAR KDRA 011552Z AUTO VRB05KT 10SM CLR 09/M03 A3018 RMK AO2 SLP206
T00891033





000
SAUS45 KREV 011557
MTRDRA
METAR KDRA 011552Z AUTO VRB05KT 10SM CLR 09/M03 A3018 RMK AO2 SLP206
T00891033





000
SAUS45 KREV 011457
MTRDRA
METAR KDRA 011452Z AUTO 19003KT 10SM CLR 05/M02 A3017 RMK AO2 SLP204
T00501017 53012





000
SAUS45 KREV 011400
MTRDRA
METAR KDRA 011352Z AUTO 09007KT 10SM CLR 06/M02 A3015 RMK AO2 SLP197
T00561022





000
SAUS45 KREV 011257
MTRDRA
METAR KDRA 011252Z AUTO 04011KT 10SM CLR 08/M04 A3014 RMK AO2 SLP186
T00831039





000
SAUS45 KREV 011157
MTRDRA
METAR KDRA 011152Z AUTO 05013KT 10SM CLR 09/M04 A3013 RMK AO2 SLP182
T00891039 10100 20061 53012





000
SAUS45 KREV 011057
MTRDRA
METAR KDRA 011052Z AUTO 03016KT 10SM CLR 08/M02 A3012 RMK AO2 SLP177
T00831017





000
SAUS45 KREV 010957
MTRDRA
METAR KDRA 010952Z AUTO 03010KT 10SM CLR 08/M01 A3011 RMK AO2 SLP174
T00831006





000
SAUS45 KREV 010857
MTRDRA
METAR KDRA 010852Z AUTO 05009KT 10SM CLR 09/M01 A3009 RMK AO2 SLP171
T00891006 51007





000
SAUS45 KREV 010756
MTRDRA
METAR KDRA 010752Z AUTO 04016KT 10SM CLR 10/M01 A3009 RMK AO2 SLP170
T01001011 401670072





000
SAUS45 KREV 010656
MTRDRA
METAR KDRA 010652Z AUTO 03011KT 10SM CLR 09/01 A3008 RMK AO2 SLP164
T00940011





000
SAUS45 KREV 010656
MTRDRA
METAR KDRA 010652Z AUTO 03011KT 10SM CLR 09/01 A3008 RMK AO2 SLP164
T00940011





000
SAUS45 KREV 010557
MTRDRA
METAR KDRA 010552Z AUTO 04009KT 10SM CLR 09/02 A3007 RMK AO2 SLP166
T00890017 10161 20083 53017





000
SAUS45 KREV 010557
MTRDRA
METAR KDRA 010552Z AUTO 04009KT 10SM CLR 09/02 A3007 RMK AO2 SLP166
T00890017 10161 20083 53017





000
SAUS45 KREV 010456
MTRDRA
METAR KDRA 010452Z AUTO 03010KT 10SM CLR 09/03 A3004 RMK AO2 SLP157
T00940028





000
SAUS45 KREV 010456
MTRDRA
METAR KDRA 010452Z AUTO 03010KT 10SM CLR 09/03 A3004 RMK AO2 SLP157
T00940028





000
SAUS45 KREV 010357
MTRDRA
METAR KDRA 010352Z AUTO 03010KT 10SM CLR 10/02 A3003 RMK AO2 SLP153
T01000022





000
SAUS45 KREV 010357
MTRDRA
METAR KDRA 010352Z AUTO 03010KT 10SM CLR 10/02 A3003 RMK AO2 SLP153
T01000022





000
SAUS45 KREV 010257
MTRDRA
METAR KDRA 010252Z AUTO 06008KT 10SM CLR 11/03 A3002 RMK AO2 SLP147
T01110033 53018





000
SAUS45 KREV 010257
MTRDRA
METAR KDRA 010252Z AUTO 06008KT 10SM CLR 11/03 A3002 RMK AO2 SLP147
T01110033 53018





000
SAUS45 KREV 010157
MTRDRA
METAR KDRA 010152Z AUTO 10007KT 10SM FEW060 12/03 A2999 RMK AO2
SLP137 T01220033





000
SAUS45 KREV 010157
MTRDRA
METAR KDRA 010152Z AUTO 10007KT 10SM FEW060 12/03 A2999 RMK AO2
SLP137 T01220033





000
SAUS45 KREV 010057
MTRDRA
METAR KDRA 010052Z AUTO 11008KT 10SM CLR 14/04 A2997 RMK AO2 SLP128
T01440039





000
SAUS45 KREV 010057
MTRDRA
METAR KDRA 010052Z AUTO 11008KT 10SM CLR 14/04 A2997 RMK AO2 SLP128
T01440039





000
SAUS45 KREV 312357
MTRDRA
METAR KDRA 312352Z AUTO 08011KT 10SM CLR 16/03 A2996 RMK AO2 SLP123
T01610028 10167 20117 56004





000
SAUS45 KREV 312257
MTRDRA
METAR KDRA 312252Z AUTO 05013KT 10SM SCT065 16/03 A2996 RMK AO2
SLP123 T01610028





000
SAUS45 KREV 312157
MTRDRA
METAR KDRA 312152Z AUTO 02012KT 10SM OVC055 15/03 A2996 RMK AO2
SLP125 T01500028





000
SAUS45 KREV 312157
MTRDRA
METAR KDRA 312152Z AUTO 02012KT 10SM OVC055 15/03 A2996 RMK AO2
SLP125 T01500028





000
SAUS45 KREV 312057
MTRDRA
METAR KDRA 312052Z AUTO 04012KT 10SM BKN046 14/03 A2997 RMK AO2
SLP128 T01390033 58003





000
SAUS45 KREV 311957
MTRDRA
METAR KDRA 311952Z AUTO 02011KT 10SM SCT049 13/03 A2998 RMK AO2
SLP132 T01330033





000
SAUS45 KREV 311857
MTRDRA
METAR KDRA 311852Z AUTO 04015KT 10SM CLR 13/04 A2998 RMK AO2 SLP135
T01330039





000
SAUS45 KREV 311757
MTRDRA
METAR KDRA 311752Z AUTO 03014KT 10SM FEW070 12/04 A2998 RMK AO2
SLP133 T01220039 10122 20078 51019





000
SAUS45 KREV 311657
MTRDRA
METAR KDRA 311652Z AUTO 04014KT 10SM OVC060 10/03 A2997 RMK AO2
SLP130 T01000033





000
SAUS45 KREV 311557
MTRDRA
METAR KDRA 311552Z AUTO 04010KT 10SM OVC065 09/04 A2994 RMK AO2
SLP124 T00890039





000
SAUS45 KREV 311457
MTRDRA
METAR KDRA 311452Z AUTO 08007KT 10SM OVC060 08/04 A2992 RMK AO2
SLP117 T00830044 53015





000
SAUS45 KREV 311401
MTRDRA
METAR KDRA 311352Z AUTO 09005KT 10SM OVC041 08/04 A2989 RMK AO2
SLP109 T00830039





000
SAUS45 KREV 311257
MTRDRA
METAR KDRA 311252Z AUTO 10004KT 10SM OVC042 08/05 A2988 RMK AO2
SLP102 T00780050





000
SAUS45 KREV 311157
MTRDRA
METAR KDRA 311152Z AUTO 08005KT 10SM OVC039 08/04 A2987 RMK AO2
SLP099 60000 70007 T00830044 10083 20072 57001





000
SAUS45 KREV 311057
MTRDRA
METAR KDRA 311052Z AUTO 09005KT 10SM OVC039 08/06 A2987 RMK AO2
RAE01 SLP099 P0000 T00780056





000
SAUS45 KREV 310957
MTRDRA
METAR KDRA 310952Z AUTO 11003KT 10SM -RA FEW029 SCT034 OVC046 08/06
A2988 RMK AO2 RAB46 SLP102 P0000 T00780061





000
SAUS45 KREV 310856
MTRDRA
METAR KDRA 310852Z AUTO 04004KT 10SM BKN033 OVC039 08/06 A2987 RMK
AO2 SLP101 T00830061 58003





000
SAUS45 KREV 310757
MTRDRA
METAR KDRA 310752Z AUTO 00000KT 10SM FEW020 FEW026 OVC036 08/06
A2988 RMK AO2 SLP102 T00830056 401170078





000
SAUS45 KREV 310749
MTRDRA
SPECI KDRA 310745Z AUTO 00000KT 10SM SCT022 OVC034 08/06 A2988 RMK
AO2 T00830061





000
SAUS45 KREV 310726
MTRDRA
SPECI KDRA 310721Z AUTO 07003KT 10SM SCT023 BKN029 OVC034 08/05
A2988 RMK AO2 T00830050





000
SAUS45 KREV 310657
MTRDRA
METAR KDRA 310652Z AUTO 09004KT 10SM OVC033 08/05 A2988 RMK AO2
SLP104 T00780050





000
SAUS45 KREV 310556
MTRDRA
METAR KDRA 310552Z AUTO 09004KT 10SM OVC034 08/06 A2989 RMK AO2
SLP105 60003 T00830056 10089 20078 53003





000
SAUS45 KREV 310457
MTRDRA
METAR KDRA 310452Z AUTO 09004KT 10SM BKN034 OVC095 08/06 A2988 RMK
AO2 RAB0359E36 SLP103 P0001 T00830056





000
SAUS45 KREV 310357
MTRDRA
METAR KDRA 310352Z AUTO 00000KT 10SM BKN040 OVC090 08/07 A2988 RMK
AO2 SLP103 T00830067





000
SAUS45 KREV 310257
MTRDRA
METAR KDRA 310252Z AUTO 04005KT 10SM SCT055 BKN070 OVC085 08/06
A2988 RMK AO2 RAB06E22 SLP102 P0001 60002 T00830061 53001





000
SAUS45 KREV 310157
MTRDRA
METAR KDRA 310152Z AUTO 09005KT 10SM BKN040 OVC055 08/06 A2987 RMK
AO2 RAB17E37 SLP101 P0000 T00830056





000
SAUS45 KREV 310057
MTRDRA
METAR KDRA 310052Z AUTO 10007KT 10SM FEW035 SCT042 OVC055 08/06
A2987 RMK AO2 RAB07E23 SLP100 P0001 T00830056





000
SAUS45 KREV 302357
MTRDRA
METAR KDRA 302352Z AUTO 10006KT 10SM BKN035 OVC042 09/06 A2987 RMK
AO2 SLP099 60003 T00890061 10100 20089 56007





000
SAUS45 KREV 302257
MTRDRA
METAR KDRA 302252Z AUTO VRB04KT 10SM BKN037 BKN049 OVC060 09/07
A2987 RMK AO2 RAE32 SLP098 P0001 T00940067





000
SAUS45 KREV 302157
MTRDRA
METAR KDRA 302152Z AUTO 11005KT 10SM -RA OVC055 09/07 A2988 RMK AO2
SLP101 P0001 T00890072





000
SAUS45 KREV 302056
MTRDRA
METAR KDRA 302052Z AUTO 05008KT 10SM -RA OVC050 09/07 A2990 RMK AO2
RAB38 SLP107 P0001 60001 T00940067 58023





000
SAUS45 KREV 301957
MTRDRA
METAR KDRA 301952Z AUTO 05007KT 10SM BKN035 OVC065 10/06 A2992 RMK
AO2 SLP113 T01000061





000
SAUS45 KREV 301857
MTRDRA
METAR KDRA 301852Z AUTO 06010KT 10SM SCT044 BKN065 OVC080 10/07
A2996 RMK AO2 SLP124 T01000067





000
SAUS45 KREV 301757
MTRDRA
METAR KDRA 301752Z AUTO 05009KT 10SM OVC080 09/06 A2997 RMK AO2
SLP132 60001 T00940061 10100 20089 58004





000
SAUS45 KREV 301657
MTRDRA
METAR KDRA 301652Z AUTO 04009KT 10SM FEW048 SCT060 OVC080 09/06
A2998 RMK AO2 SLP134 T00940061





000
SAUS45 KREV 301557
MTRDRA
METAR KDRA 301552Z AUTO 05008KT 10SM BKN075 OVC090 09/06 A2999 RMK
AO2 RAE18 SLP136 P0000 T00890061





000
SAUS45 KREV 301457
MTRDRA
METAR KDRA 301452Z AUTO 04010KT 10SM -RA OVC049 09/06 A2999 RMK AO2
RAB44 SLP135 P0000 60001 T00890061 56005





000
SAUS45 KREV 301401
MTRDRA
METAR KDRA 301352Z AUTO 04010KT 10SM BKN065 OVC080 09/06 A2999 RMK
AO2 RAE17 SLP134 P0001 T00890056





000
SAUS45 KREV 301257
MTRDRA
METAR KDRA 301252Z AUTO 04007KT 10SM -RA OVC050 09/06 A3000 RMK AO2
RAB37 SLP136 P0000 T00940056





000
SAUS45 KREV 301157
MTRDRA
METAR KDRA 301152Z AUTO 03011KT 10SM FEW075 OVC090 10/04 A3000 RMK
AO2 SLP138 T01000044 10117 20100 58022





000
SAUS45 KREV 301057
MTRDRA
METAR KDRA 301052Z AUTO 03009KT 10SM FEW060 OVC110 11/04 A3003 RMK
AO2 SLP147 T01060044





000
SAUS45 KREV 300957
MTRDRA
METAR KDRA 300952Z AUTO 04006KT 10SM FEW085 SCT120 11/04 A3005 RMK
AO2 SLP154 T01060044





000
SAUS45 KREV 300857
MTRDRA
METAR KDRA 300852Z AUTO 04008KT 10SM SCT065 OVC095 11/06 A3008 RMK
AO2 SLP163 T01060056 58005





000
SAUS45 KREV 300757
MTRDRA
METAR KDRA 300752Z AUTO 03007KT 10SM BKN060 OVC075 12/04 A3010 RMK
AO2 SLP168 T01170039 401670106





000
SAUS45 KREV 300657
MTRDRA
METAR KDRA 300652Z AUTO 04008KT 10SM BKN075 OVC090 12/04 A3010 RMK
AO2 SLP170 T01170039





000
SAUS45 KREV 300557
MTRDRA
METAR KDRA 300552Z AUTO 04008KT 10SM OVC085 12/04 A3009 RMK AO2
SLP170 T01170039 10156 20117 55002





000
SAUS45 KREV 300457
MTRDRA
METAR KDRA 300452Z AUTO 04009KT 10SM FEW090 12/04 A3009 RMK AO2
SLP168 T01170039





000
SAUS45 KREV 300356
MTRDRA
METAR KDRA 300352Z AUTO 04009KT 10SM CLR 12/04 A3010 RMK AO2 SLP171
T01170039





000
SAUS45 KREV 300257
MTRDRA
METAR KDRA 300252Z AUTO 04007KT 10SM SCT100 13/03 A3010 RMK AO2
SLP173 T01280033 50003





000
SAUS45 KREV 300157
MTRDRA
METAR KDRA 300152Z AUTO 03009KT 10SM BKN110 14/03 A3010 RMK AO2
SLP172 T01440028





000
SAUS45 KREV 300057
MTRDRA
METAR KDRA 300052Z AUTO 10006KT 10SM BKN110 14/02 A3009 RMK AO2
SLP169 T01440022





000
SAUS45 KREV 292357
MTRDRA
METAR KDRA 292352Z AUTO 08006KT 10SM OVC100 16/02 A3009 RMK AO2
SLP167 T01560022 10167 20128 56016





000
SAUS45 KREV 292257
MTRDRA
METAR KDRA 292252Z AUTO 05008KT 10SM OVC100 16/02 A3010 RMK AO2
SLP169 T01610017





000
SAUS45 KREV 292157
MTRDRA
METAR KDRA 292152Z AUTO 06008KT 10SM OVC110 16/02 A3012 RMK AO2
SLP177 T01560022





    US Dept of Commerce
    National Oceanic and Atmospheric Administration
    National Weather Service
    1325 East West Highway
    Silver Spring, MD 20910
    Page Author: NWS Internet Services Team
Disclaimer
Information Quality
Credits
Glossary
Privacy Policy
Freedom of Information Act (FOIA)
About Us
Career Opportunities